BAW304 EGLL-LFPG
Flight info
| Callsign | BAW304 |
|---|---|
| Flight time | N/A |
| Altitude | 25000 |
| Route | MODMI1J MODMI M185 MID UL612 BOGNA DCT HARDY UM605 BIBAX BIBAX9W |
| Aircraft | B763/M-V/N |
Departure
| Time | 2026-04-27 10:32 |
|---|---|
| Airport | London Heathrow Airport (EGLL) |
Arrival
| Time | N/A |
|---|---|
| Airport | Charles de Gaulle International Airport (LFPG) |
| Time | Latitude | Longitude | Altitude | Speed | Heading |
|---|---|---|---|---|---|
| 2026-04-27 10:17 | 51.47143 | -0.47506 | 84 ft | 0 kts | 270° |
| 2026-04-27 10:22 | 51.47143 | -0.47493 | 84 ft | 2 kts | 270° |
| 2026-04-27 10:23 | 51.47143 | -0.47469 | 85 ft | 2 kts | 270° |
| 2026-04-27 10:23 | 51.47143 | -0.47448 | 85 ft | 2 kts | 270° |
| 2026-04-27 10:23 | 51.47143 | -0.47428 | 85 ft | 2 kts | 270° |
| 2026-04-27 10:23 | 51.47143 | -0.47407 | 86 ft | 1 kts | 270° |
| 2026-04-27 10:24 | 51.47143 | -0.47393 | 86 ft | 2 kts | 263° |
| 2026-04-27 10:24 | 51.47148 | -0.47372 | 86 ft | 1 kts | 232° |
| 2026-04-27 10:24 | 51.47157 | -0.47360 | 87 ft | 1 kts | 210° |
| 2026-04-27 10:24 | 51.47168 | -0.47354 | 87 ft | 1 kts | 187° |
| 2026-04-27 10:25 | 51.47172 | -0.47354 | 87 ft | 0 kts | 179° |
| 2026-04-27 10:26 | 51.47152 | -0.47354 | 87 ft | 9 kts | 179° |
| 2026-04-27 10:26 | 51.47071 | -0.47354 | 85 ft | 17 kts | 180° |
| 2026-04-27 10:27 | 51.46968 | -0.47353 | 84 ft | 16 kts | 180° |
| 2026-04-27 10:27 | 51.46920 | -0.47353 | 84 ft | 14 kts | 180° |
| 2026-04-27 10:27 | 51.46861 | -0.47352 | 84 ft | 17 kts | 180° |
| 2026-04-27 10:27 | 51.46783 | -0.47351 | 84 ft | 5 kts | 182° |
| 2026-04-27 10:28 | 51.46747 | -0.47398 | 84 ft | 9 kts | 253° |
| 2026-04-27 10:28 | 51.46744 | -0.47518 | 84 ft | 14 kts | 270° |
| 2026-04-27 10:28 | 51.46744 | -0.47678 | 84 ft | 18 kts | 270° |
| 2026-04-27 10:28 | 51.46744 | -0.47857 | 84 ft | 18 kts | 270° |
| 2026-04-27 10:29 | 51.46743 | -0.48052 | 84 ft | 22 kts | 270° |
| 2026-04-27 10:29 | 51.46742 | -0.48180 | 83 ft | 12 kts | 270° |
| 2026-04-27 10:29 | 51.46742 | -0.48251 | 83 ft | 2 kts | 270° |
| 2026-04-27 10:29 | 51.46741 | -0.48285 | 83 ft | 4 kts | 270° |
| 2026-04-27 10:30 | 51.46741 | -0.48321 | 82 ft | 5 kts | 270° |
| 2026-04-27 10:30 | 51.46739 | -0.48419 | 81 ft | 11 kts | 262° |
| 2026-04-27 10:30 | 51.46666 | -0.48469 | 81 ft | 14 kts | 179° |
| 2026-04-27 10:30 | 51.46550 | -0.48467 | 81 ft | 20 kts | 180° |
| 2026-04-27 10:31 | 51.46480 | -0.48429 | 81 ft | 10 kts | 114° |
| 2026-04-27 10:31 | 51.46478 | -0.48354 | 81 ft | 5 kts | 89° |
| 2026-04-27 10:31 | 51.46479 | -0.48127 | 81 ft | 62 kts | 90° |
| 2026-04-27 10:31 | 51.46491 | -0.46741 | 179 ft | 184 kts | 89° |
| 2026-04-27 10:32 | 51.45905 | -0.39988 | 4419 ft | 244 kts | 123° |
| 2026-04-27 10:33 | 51.42519 | -0.36697 | 5988 ft | 270 kts | 162° |
| 2026-04-27 10:33 | 51.40384 | -0.36057 | 6838 ft | 272 kts | 185° |
| 2026-04-27 10:33 | 51.38358 | -0.37007 | 7717 ft | 274 kts | 205° |
| 2026-04-27 10:33 | 51.36664 | -0.38214 | 8386 ft | 265 kts | 206° |
| 2026-04-27 10:34 | 51.35019 | -0.39448 | 9330 ft | 267 kts | 207° |
| 2026-04-27 10:34 | 51.33416 | -0.40698 | 11248 ft | 261 kts | 208° |
| 2026-04-27 10:34 | 51.31846 | -0.41935 | 12790 ft | 265 kts | 208° |
| 2026-04-27 10:34 | 51.30200 | -0.43205 | 14228 ft | 272 kts | 209° |
| 2026-04-27 10:35 | 51.28533 | -0.44500 | 15626 ft | 277 kts | 209° |
| 2026-04-27 10:35 | 51.26825 | -0.45847 | 16953 ft | 282 kts | 210° |
| 2026-04-27 10:35 | 51.25099 | -0.47224 | 18230 ft | 288 kts | 210° |
| 2026-04-27 10:35 | 51.23333 | -0.48628 | 19487 ft | 292 kts | 210° |
| 2026-04-27 10:36 | 51.21522 | -0.50035 | 20695 ft | 298 kts | 209° |
| 2026-04-27 10:36 | 51.19674 | -0.51467 | 21882 ft | 303 kts | 210° |
| 2026-04-27 10:36 | 51.17815 | -0.52908 | 22985 ft | 308 kts | 210° |
| 2026-04-27 10:36 | 51.15891 | -0.54397 | 24041 ft | 314 kts | 210° |
| 2026-04-27 10:37 | 51.13934 | -0.55909 | 25141 ft | 317 kts | 210° |
| 2026-04-27 10:37 | 51.11892 | -0.57492 | 25341 ft | 337 kts | 209° |
| 2026-04-27 10:37 | 51.09674 | -0.59184 | 25295 ft | 376 kts | 206° |
| 2026-04-27 10:37 | 51.07048 | -0.60422 | 25298 ft | 417 kts | 193° |
| 2026-04-27 10:38 | 51.04031 | -0.60864 | 25287 ft | 455 kts | 183° |
| 2026-04-27 10:38 | 51.00836 | -0.60511 | 25274 ft | 484 kts | 174° |
| 2026-04-27 10:38 | 50.97594 | -0.59342 | 25261 ft | 478 kts | 165° |
| 2026-04-27 10:38 | 50.94592 | -0.57437 | 25262 ft | 476 kts | 156° |
| 2026-04-27 10:39 | 50.91777 | -0.54789 | 25266 ft | 494 kts | 147° |
| 2026-04-27 10:39 | 50.89139 | -0.51528 | 25261 ft | 497 kts | 141° |
| 2026-04-27 10:39 | 50.86722 | -0.47996 | 25265 ft | 495 kts | 139° |
| 2026-04-27 10:39 | 50.84165 | -0.44408 | 25262 ft | 497 kts | 140° |
| 2026-04-27 10:40 | 50.81714 | -0.40980 | 25258 ft | 496 kts | 141° |
| 2026-04-27 10:40 | 50.79196 | -0.37506 | 25263 ft | 495 kts | 141° |
| 2026-04-27 10:40 | 50.76643 | -0.33992 | 25261 ft | 496 kts | 141° |
| 2026-04-27 10:40 | 50.74123 | -0.30540 | 25258 ft | 495 kts | 141° |
| 2026-04-27 10:41 | 50.71686 | -0.26823 | 25255 ft | 497 kts | 134° |
| 2026-04-27 10:41 | 50.69639 | -0.22632 | 25253 ft | 500 kts | 125° |
| 2026-04-27 10:41 | 50.67981 | -0.17969 | 25259 ft | 500 kts | 117° |
| 2026-04-27 10:41 | 50.66535 | -0.13091 | 25254 ft | 494 kts | 114° |
| 2026-04-27 10:42 | 50.65297 | -0.08255 | 25235 ft | 490 kts | 105° |